sensor_id;sensor_type;location;lat;lon;timestamp;temperature;humidity
46932;DHT22;32670;51.464;11.964;2023-02-02T00:01:10;21.10;53.60
46932;DHT22;32670;51.464;11.964;2023-02-02T00:03:35;21.10;53.70
46932;DHT22;32670;51.464;11.964;2023-02-02T00:06:02;21.10;53.90
46932;DHT22;32670;51.464;11.964;2023-02-02T00:08:28;21.20;53.80
46932;DHT22;32670;51.464;11.964;2023-02-02T00:10:54;21.10;54.30
46932;DHT22;32670;51.464;11.964;2023-02-02T00:13:19;21.20;53.80
46932;DHT22;32670;51.464;11.964;2023-02-02T00:15:45;21.20;54.40
46932;DHT22;32670;51.464;11.964;2023-02-02T00:18:10;21.20;54.10
46932;DHT22;32670;51.464;11.964;2023-02-02T00:20:36;21.20;54.10
46932;DHT22;32670;51.464;11.964;2023-02-02T00:23:02;21.20;54.20
46932;DHT22;32670;51.464;11.964;2023-02-02T00:25:28;21.20;54.10
46932;DHT22;32670;51.464;11.964;2023-02-02T00:27:54;21.20;53.90
46932;DHT22;32670;51.464;11.964;2023-02-02T00:30:20;21.20;54.00
46932;DHT22;32670;51.464;11.964;2023-02-02T00:32:45;21.20;54.00
46932;DHT22;32670;51.464;11.964;2023-02-02T00:35:13;21.20;54.10
46932;DHT22;32670;51.464;11.964;2023-02-02T00:37:39;21.20;54.20
46932;DHT22;32670;51.464;11.964;2023-02-02T00:40:05;21.30;54.90
46932;DHT22;32670;51.464;11.964;2023-02-02T00:42:30;21.20;54.20
46932;DHT22;32670;51.464;11.964;2023-02-02T00:44:56;21.30;54.40
46932;DHT22;32670;51.464;11.964;2023-02-02T00:47:40;21.20;54.40
46932;DHT22;32670;51.464;11.964;2023-02-02T00:50:06;21.20;54.30
46932;DHT22;32670;51.464;11.964;2023-02-02T00:52:31;21.30;54.40
46932;DHT22;32670;51.464;11.964;2023-02-02T00:54:57;21.30;54.50
46932;DHT22;32670;51.464;11.964;2023-02-02T00:57:22;21.20;54.70
46932;DHT22;32670;51.464;11.964;2023-02-02T00:59:48;21.30;54.70
46932;DHT22;32670;51.464;11.964;2023-02-02T01:02:13;21.30;54.70
46932;DHT22;32670;51.464;11.964;2023-02-02T01:04:39;21.30;54.70
46932;DHT22;32670;51.464;11.964;2023-02-02T01:07:04;21.30;54.60
46932;DHT22;32670;51.464;11.964;2023-02-02T01:09:30;21.30;54.70
46932;DHT22;32670;51.464;11.964;2023-02-02T01:11:56;21.30;54.70
46932;DHT22;32670;51.464;11.964;2023-02-02T01:14:22;21.30;54.80
46932;DHT22;32670;51.464;11.964;2023-02-02T01:16:47;21.30;54.90
46932;DHT22;32670;51.464;11.964;2023-02-02T01:19:14;21.30;54.90
46932;DHT22;32670;51.464;11.964;2023-02-02T01:21:40;21.30;54.90
46932;DHT22;32670;51.464;11.964;2023-02-02T01:24:06;21.30;54.90
46932;DHT22;32670;51.464;11.964;2023-02-02T01:26:31;21.30;54.90
46932;DHT22;32670;51.464;11.964;2023-02-02T01:28:57;21.30;54.90
46932;DHT22;32670;51.464;11.964;2023-02-02T01:31:23;21.30;55.00
46932;DHT22;32670;51.464;11.964;2023-02-02T01:33:48;21.30;55.00
46932;DHT22;32670;51.464;11.964;2023-02-02T01:36:18;21.30;55.20
46932;DHT22;32670;51.464;11.964;2023-02-02T01:38:44;21.30;54.50
46932;DHT22;32670;51.464;11.964;2023-02-02T01:41:16;21.30;54.50
46932;DHT22;32670;51.464;11.964;2023-02-02T01:46:27;21.40;55.30
46932;DHT22;32670;51.464;11.964;2023-02-02T01:49:04;21.40;55.20
46932;DHT22;32670;51.464;11.964;2023-02-02T01:51:39;21.40;55.20
46932;DHT22;32670;51.464;11.964;2023-02-02T01:54:08;21.40;55.20
46932;DHT22;32670;51.464;11.964;2023-02-02T01:56:44;21.40;55.10
46932;DHT22;32670;51.464;11.964;2023-02-02T01:59:12;21.40;55.20
46932;DHT22;32670;51.464;11.964;2023-02-02T02:01:39;21.40;55.20
46932;DHT22;32670;51.464;11.964;2023-02-02T02:04:05;21.40;55.30
46932;DHT22;32670;51.464;11.964;2023-02-02T02:06:31;21.40;55.10
46932;DHT22;32670;51.464;11.964;2023-02-02T02:09:02;21.40;55.40
46932;DHT22;32670;51.464;11.964;2023-02-02T02:11:29;21.40;55.30
46932;DHT22;32670;51.464;11.964;2023-02-02T02:13:57;21.40;55.70
46932;DHT22;32670;51.464;11.964;2023-02-02T02:17:36;21.40;55.70
46932;DHT22;32670;51.464;11.964;2023-02-02T02:20:16;21.40;56.00
46932;DHT22;32670;51.464;11.964;2023-02-02T02:32:30;21.50;56.00
46932;DHT22;32670;51.464;11.964;2023-02-02T02:40:28;21.50;55.90
46932;DHT22;32670;51.464;11.964;2023-02-02T02:42:58;21.40;55.90
46932;DHT22;32670;51.464;11.964;2023-02-02T02:45:26;21.40;56.00
46932;DHT22;32670;51.464;11.964;2023-02-02T02:47:52;21.50;55.90
46932;DHT22;32670;51.464;11.964;2023-02-02T02:50:18;21.50;55.90
46932;DHT22;32670;51.464;11.964;2023-02-02T02:52:45;21.50;56.00
46932;DHT22;32670;51.464;11.964;2023-02-02T02:55:11;21.50;56.00
46932;DHT22;32670;51.464;11.964;2023-02-02T02:57:40;21.50;56.00
46932;DHT22;32670;51.464;11.964;2023-02-02T03:00:38;21.50;56.00
46932;DHT22;32670;51.464;11.964;2023-02-02T03:03:27;21.50;56.00
46932;DHT22;32670;51.464;11.964;2023-02-02T03:06:03;21.40;56.00
46932;DHT22;32670;51.464;11.964;2023-02-02T03:08:52;21.40;55.80
46932;DHT22;32670;51.464;11.964;2023-02-02T03:11:19;21.50;55.70
46932;DHT22;32670;51.464;11.964;2023-02-02T03:13:45;21.50;56.00
46932;DHT22;32670;51.464;11.964;2023-02-02T03:16:13;21.50;56.10
46932;DHT22;32670;51.464;11.964;2023-02-02T03:18:39;21.50;56.10
46932;DHT22;32670;51.464;11.964;2023-02-02T03:21:04;21.50;56.10
46932;DHT22;32670;51.464;11.964;2023-02-02T03:23:30;21.50;55.90
46932;DHT22;32670;51.464;11.964;2023-02-02T03:25:55;21.50;56.20
46932;DHT22;32670;51.464;11.964;2023-02-02T03:28:22;21.50;56.40
46932;DHT22;32670;51.464;11.964;2023-02-02T03:30:48;21.50;55.70
46932;DHT22;32670;51.464;11.964;2023-02-02T03:33:14;21.50;54.70
46932;DHT22;32670;51.464;11.964;2023-02-02T03:35:40;21.50;55.50
46932;DHT22;32670;51.464;11.964;2023-02-02T03:38:06;21.60;55.50
46932;DHT22;32670;51.464;11.964;2023-02-02T03:40:31;21.60;55.80
46932;DHT22;32670;51.464;11.964;2023-02-02T03:42:57;21.50;55.70
46932;DHT22;32670;51.464;11.964;2023-02-02T03:45:22;21.50;55.90
46932;DHT22;32670;51.464;11.964;2023-02-02T03:47:48;21.50;55.90
46932;DHT22;32670;51.464;11.964;2023-02-02T03:50:13;21.50;56.00
46932;DHT22;32670;51.464;11.964;2023-02-02T03:52:39;21.50;56.00
46932;DHT22;32670;51.464;11.964;2023-02-02T03:55:05;21.50;56.10
46932;DHT22;32670;51.464;11.964;2023-02-02T03:57:30;21.50;56.00
46932;DHT22;32670;51.464;11.964;2023-02-02T03:59:56;21.50;56.00
46932;DHT22;32670;51.464;11.964;2023-02-02T04:02:21;21.50;56.00
46932;DHT22;32670;51.464;11.964;2023-02-02T04:04:47;21.50;56.10
46932;DHT22;32670;51.464;11.964;2023-02-02T04:07:12;21.50;56.00
46932;DHT22;32670;51.464;11.964;2023-02-02T04:09:38;21.60;55.90
46932;DHT22;32670;51.464;11.964;2023-02-02T04:12:04;21.50;55.90
46932;DHT22;32670;51.464;11.964;2023-02-02T04:14:29;21.50;55.90
46932;DHT22;32670;51.464;11.964;2023-02-02T04:16:54;21.50;55.90
46932;DHT22;32670;51.464;11.964;2023-02-02T04:19:20;21.50;55.90
46932;DHT22;32670;51.464;11.964;2023-02-02T04:21:45;21.50;55.90
46932;DHT22;32670;51.464;11.964;2023-02-02T04:24:12;21.50;55.90
46932;DHT22;32670;51.464;11.964;2023-02-02T04:26:38;21.50;56.00
46932;DHT22;32670;51.464;11.964;2023-02-02T04:29:04;21.50;55.90
46932;DHT22;32670;51.464;11.964;2023-02-02T04:31:30;21.50;55.90
46932;DHT22;32670;51.464;11.964;2023-02-02T04:33:56;21.60;56.10
46932;DHT22;32670;51.464;11.964;2023-02-02T04:36:22;21.50;56.00
46932;DHT22;32670;51.464;11.964;2023-02-02T04:38:52;21.50;56.20
46932;DHT22;32670;51.464;11.964;2023-02-02T04:41:17;21.50;56.10
46932;DHT22;32670;51.464;11.964;2023-02-02T04:43:43;21.50;56.10
46932;DHT22;32670;51.464;11.964;2023-02-02T04:46:09;21.50;56.10
46932;DHT22;32670;51.464;11.964;2023-02-02T04:48:34;21.50;56.20
46932;DHT22;32670;51.464;11.964;2023-02-02T04:51:02;21.50;56.00
46932;DHT22;32670;51.464;11.964;2023-02-02T04:53:28;21.50;56.20
46932;DHT22;32670;51.464;11.964;2023-02-02T04:55:54;21.50;56.40
46932;DHT22;32670;51.464;11.964;2023-02-02T04:58:20;21.50;56.30
46932;DHT22;32670;51.464;11.964;2023-02-02T05:00:45;21.60;56.50
46932;DHT22;32670;51.464;11.964;2023-02-02T05:03:11;21.60;56.50
46932;DHT22;32670;51.464;11.964;2023-02-02T05:05:36;21.60;56.40
46932;DHT22;32670;51.464;11.964;2023-02-02T05:08:02;21.60;56.40
46932;DHT22;32670;51.464;11.964;2023-02-02T05:10:28;21.50;56.40
46932;DHT22;32670;51.464;11.964;2023-02-02T05:12:54;21.50;56.30
46932;DHT22;32670;51.464;11.964;2023-02-02T05:15:21;21.60;56.40
46932;DHT22;32670;51.464;11.964;2023-02-02T05:17:47;21.60;56.40
46932;DHT22;32670;51.464;11.964;2023-02-02T05:20:13;21.60;56.40
46932;DHT22;32670;51.464;11.964;2023-02-02T05:22:38;21.60;56.40
46932;DHT22;32670;51.464;11.964;2023-02-02T05:25:05;21.60;56.50
46932;DHT22;32670;51.464;11.964;2023-02-02T05:27:31;21.60;56.40
46932;DHT22;32670;51.464;11.964;2023-02-02T05:29:56;21.60;56.40
46932;DHT22;32670;51.464;11.964;2023-02-02T05:32:22;21.60;56.40
46932;DHT22;32670;51.464;11.964;2023-02-02T05:34:47;21.60;56.50
46932;DHT22;32670;51.464;11.964;2023-02-02T05:37:13;21.60;56.50
46932;DHT22;32670;51.464;11.964;2023-02-02T05:39:38;21.60;56.70
46932;DHT22;32670;51.464;11.964;2023-02-02T05:42:04;21.60;56.70
46932;DHT22;32670;51.464;11.964;2023-02-02T05:44:29;21.60;56.70
46932;DHT22;32670;51.464;11.964;2023-02-02T05:46:55;21.60;56.70
46932;DHT22;32670;51.464;11.964;2023-02-02T05:49:20;21.60;56.80
46932;DHT22;32670;51.464;11.964;2023-02-02T05:51:47;21.60;56.90
46932;DHT22;32670;51.464;11.964;2023-02-02T05:54:14;21.60;56.80
46932;DHT22;32670;51.464;11.964;2023-02-02T05:56:44;21.60;56.80
46932;DHT22;32670;51.464;11.964;2023-02-02T05:59:09;21.50;56.60
46932;DHT22;32670;51.464;11.964;2023-02-02T06:01:34;21.60;56.70
46932;DHT22;32670;51.464;11.964;2023-02-02T06:04:00;21.60;56.70
46932;DHT22;32670;51.464;11.964;2023-02-02T06:06:25;21.60;56.80
46932;DHT22;32670;51.464;11.964;2023-02-02T06:08:51;21.60;57.10
46932;DHT22;32670;51.464;11.964;2023-02-02T06:11:17;21.60;57.10
46932;DHT22;32670;51.464;11.964;2023-02-02T06:13:43;21.60;57.20
46932;DHT22;32670;51.464;11.964;2023-02-02T06:16:08;21.60;57.20
46932;DHT22;32670;51.464;11.964;2023-02-02T06:18:35;21.60;57.10
46932;DHT22;32670;51.464;11.964;2023-02-02T06:21:02;21.70;57.00
46932;DHT22;32670;51.464;11.964;2023-02-02T06:23:27;21.60;57.20
46932;DHT22;32670;51.464;11.964;2023-02-02T06:25:53;21.60;56.00
46932;DHT22;32670;51.464;11.964;2023-02-02T06:28:19;21.60;55.50
46932;DHT22;32670;51.464;11.964;2023-02-02T06:30:44;21.60;55.80
46932;DHT22;32670;51.464;11.964;2023-02-02T06:33:10;21.70;56.80
46932;DHT22;32670;51.464;11.964;2023-02-02T06:35:35;21.70;55.80
46932;DHT22;32670;51.464;11.964;2023-02-02T06:38:01;21.70;56.00
46932;DHT22;32670;51.464;11.964;2023-02-02T06:40:27;21.70;56.00
46932;DHT22;32670;51.464;11.964;2023-02-02T06:42:57;21.60;47.90
46932;DHT22;32670;51.464;11.964;2023-02-02T06:45:23;21.20;43.20
46932;DHT22;32670;51.464;11.964;2023-02-02T06:47:48;20.90;39.20
46932;DHT22;32670;51.464;11.964;2023-02-02T06:50:14;20.50;38.30
46932;DHT22;32670;51.464;11.964;2023-02-02T06:52:46;20.20;37.60
46932;DHT22;32670;51.464;11.964;2023-02-02T06:55:12;20.00;37.40
46932;DHT22;32670;51.464;11.964;2023-02-02T06:57:38;19.80;37.20
46932;DHT22;32670;51.464;11.964;2023-02-02T07:00:03;19.60;36.50
46932;DHT22;32670;51.464;11.964;2023-02-02T07:02:29;19.50;36.00
46932;DHT22;32670;51.464;11.964;2023-02-02T07:04:54;19.30;36.10
46932;DHT22;32670;51.464;11.964;2023-02-02T07:07:20;19.30;36.00
46932;DHT22;32670;51.464;11.964;2023-02-02T07:09:45;19.20;35.70
46932;DHT22;32670;51.464;11.964;2023-02-02T07:12:11;19.10;35.70
46932;DHT22;32670;51.464;11.964;2023-02-02T07:14:36;19.00;35.60
46932;DHT22;32670;51.464;11.964;2023-02-02T07:17:02;19.00;35.70
46932;DHT22;32670;51.464;11.964;2023-02-02T07:19:27;18.80;35.70
46932;DHT22;32670;51.464;11.964;2023-02-02T07:21:53;18.80;35.50
46932;DHT22;32670;51.464;11.964;2023-02-02T07:24:18;18.80;36.00
46932;DHT22;32670;51.464;11.964;2023-02-02T07:26:44;18.70;35.90
46932;DHT22;32670;51.464;11.964;2023-02-02T07:29:12;18.80;36.00
46932;DHT22;32670;51.464;11.964;2023-02-02T07:31:38;18.70;35.90
46932;DHT22;32670;51.464;11.964;2023-02-02T07:34:05;18.60;35.70
46932;DHT22;32670;51.464;11.964;2023-02-02T07:36:30;18.60;35.70
46932;DHT22;32670;51.464;11.964;2023-02-02T07:38:56;18.60;35.70
46932;DHT22;32670;51.464;11.964;2023-02-02T07:41:22;18.50;35.70
46932;DHT22;32670;51.464;11.964;2023-02-02T07:43:49;18.40;36.30
46932;DHT22;32670;51.464;11.964;2023-02-02T07:46:15;18.50;36.90
46932;DHT22;32670;51.464;11.964;2023-02-02T07:48:41;18.50;36.40
46932;DHT22;32670;51.464;11.964;2023-02-02T07:51:10;18.40;36.00
46932;DHT22;32670;51.464;11.964;2023-02-02T07:53:36;18.40;35.70
46932;DHT22;32670;51.464;11.964;2023-02-02T07:56:12;18.30;35.70
46932;DHT22;32670;51.464;11.964;2023-02-02T07:58:38;18.30;36.40
46932;DHT22;32670;51.464;11.964;2023-02-02T08:01:05;18.30;36.20
46932;DHT22;32670;51.464;11.964;2023-02-02T08:03:31;18.30;36.00
46932;DHT22;32670;51.464;11.964;2023-02-02T08:05:58;18.20;35.80
46932;DHT22;32670;51.464;11.964;2023-02-02T08:08:24;18.20;35.80
46932;DHT22;32670;51.464;11.964;2023-02-02T08:10:51;18.10;35.70
46932;DHT22;32670;51.464;11.964;2023-02-02T08:13:17;18.10;35.70
46932;DHT22;32670;51.464;11.964;2023-02-02T08:15:43;18.00;35.60
46932;DHT22;32670;51.464;11.964;2023-02-02T08:18:08;17.90;35.90
46932;DHT22;32670;51.464;11.964;2023-02-02T08:20:34;18.00;36.00
46932;DHT22;32670;51.464;11.964;2023-02-02T08:22:59;17.90;35.90
46932;DHT22;32670;51.464;11.964;2023-02-02T08:25:25;17.90;36.00
46932;DHT22;32670;51.464;11.964;2023-02-02T08:27:54;17.80;35.90
46932;DHT22;32670;51.464;11.964;2023-02-02T08:30:21;17.80;36.00
46932;DHT22;32670;51.464;11.964;2023-02-02T08:32:46;17.80;36.90
46932;DHT22;32670;51.464;11.964;2023-02-02T08:35:12;18.00;37.70
46932;DHT22;32670;51.464;11.964;2023-02-02T08:37:37;18.10;38.20
46932;DHT22;32670;51.464;11.964;2023-02-02T08:40:03;18.30;38.50
46932;DHT22;32670;51.464;11.964;2023-02-02T08:42:29;18.50;38.70
46932;DHT22;32670;51.464;11.964;2023-02-02T08:44:54;18.60;38.80
46932;DHT22;32670;51.464;11.964;2023-02-02T08:47:19;18.70;39.00
46932;DHT22;32670;51.464;11.964;2023-02-02T08:49:45;18.80;39.10
46932;DHT22;32670;51.464;11.964;2023-02-02T08:52:10;18.90;39.20
46932;DHT22;32670;51.464;11.964;2023-02-02T08:54:36;18.90;39.30
46932;DHT22;32670;51.464;11.964;2023-02-02T08:57:01;19.10;39.50
46932;DHT22;32670;51.464;11.964;2023-02-02T08:59:27;19.10;40.20
46932;DHT22;32670;51.464;11.964;2023-02-02T09:01:52;19.10;40.30
46932;DHT22;32670;51.464;11.964;2023-02-02T09:04:17;19.20;40.20
46932;DHT22;32670;51.464;11.964;2023-02-02T09:06:43;19.20;40.30
46932;DHT22;32670;51.464;11.964;2023-02-02T09:09:12;19.30;40.40
46932;DHT22;32670;51.464;11.964;2023-02-02T09:11:38;19.30;40.50
46932;DHT22;32670;51.464;11.964;2023-02-02T09:14:04;19.30;40.60
46932;DHT22;32670;51.464;11.964;2023-02-02T09:16:32;19.30;40.60
46932;DHT22;32670;51.464;11.964;2023-02-02T09:18:58;19.30;40.80
46932;DHT22;32670;51.464;11.964;2023-02-02T09:21:24;19.40;40.90
46932;DHT22;32670;51.464;11.964;2023-02-02T09:23:51;19.50;41.10
46932;DHT22;32670;51.464;11.964;2023-02-02T09:26:26;19.50;41.50
46932;DHT22;32670;51.464;11.964;2023-02-02T09:28:57;19.50;41.30
46932;DHT22;32670;51.464;11.964;2023-02-02T09:31:24;19.50;41.50
46932;DHT22;32670;51.464;11.964;2023-02-02T09:33:50;19.50;41.50
46932;DHT22;32670;51.464;11.964;2023-02-02T09:36:21;19.50;41.50
46932;DHT22;32670;51.464;11.964;2023-02-02T09:38:47;19.50;41.50
46932;DHT22;32670;51.464;11.964;2023-02-02T09:53:05;19.70;41.80
46932;DHT22;32670;51.464;11.964;2023-02-02T09:58:18;19.80;42.00
46932;DHT22;32670;51.464;11.964;2023-02-02T10:01:07;19.70;42.00
46932;DHT22;32670;51.464;11.964;2023-02-02T10:03:44;19.70;42.10
46932;DHT22;32670;51.464;11.964;2023-02-02T10:06:31;19.70;42.10
46932;DHT22;32670;51.464;11.964;2023-02-02T10:09:25;19.70;42.20
46932;DHT22;32670;51.464;11.964;2023-02-02T10:11:55;19.80;42.20
46932;DHT22;32670;51.464;11.964;2023-02-02T10:14:32;19.70;42.30
46932;DHT22;32670;51.464;11.964;2023-02-02T10:17:06;19.70;42.30
46932;DHT22;32670;51.464;11.964;2023-02-02T10:19:35;19.80;42.40
46932;DHT22;32670;51.464;11.964;2023-02-02T10:22:16;19.80;42.40
46932;DHT22;32670;51.464;11.964;2023-02-02T10:24:43;19.80;42.30
46932;DHT22;32670;51.464;11.964;2023-02-02T10:27:15;19.80;42.90
46932;DHT22;32670;51.464;11.964;2023-02-02T10:30:00;19.90;43.40
46932;DHT22;32670;51.464;11.964;2023-02-02T10:32:48;19.80;43.00
46932;DHT22;32670;51.464;11.964;2023-02-02T10:38:23;19.90;42.80
46932;DHT22;32670;51.464;11.964;2023-02-02T10:41:01;19.90;42.70
46932;DHT22;32670;51.464;11.964;2023-02-02T10:46:31;19.90;42.80
46932;DHT22;32670;51.464;11.964;2023-02-02T10:51:54;19.90;42.70
46932;DHT22;32670;51.464;11.964;2023-02-02T10:54:39;19.80;42.70
46932;DHT22;32670;51.464;11.964;2023-02-02T10:57:09;19.90;42.80
46932;DHT22;32670;51.464;11.964;2023-02-02T10:59:43;19.90;42.70
46932;DHT22;32670;51.464;11.964;2023-02-02T11:02:14;19.90;42.70
46932;DHT22;32670;51.464;11.964;2023-02-02T11:04:39;19.90;42.70
46932;DHT22;32670;51.464;11.964;2023-02-02T11:07:24;19.90;42.70
46932;DHT22;32670;51.464;11.964;2023-02-02T11:09:49;19.90;42.70
46932;DHT22;32670;51.464;11.964;2023-02-02T11:12:24;19.90;42.60
46932;DHT22;32670;51.464;11.964;2023-02-02T11:15:03;19.90;42.70
46932;DHT22;32670;51.464;11.964;2023-02-02T11:17:32;19.90;42.70
46932;DHT22;32670;51.464;11.964;2023-02-02T11:19:58;19.90;42.70
46932;DHT22;32670;51.464;11.964;2023-02-02T11:22:35;19.90;42.70
46932;DHT22;32670;51.464;11.964;2023-02-02T11:25:04;19.90;42.60
46932;DHT22;32670;51.464;11.964;2023-02-02T11:27:39;19.90;42.60
46932;DHT22;32670;51.464;11.964;2023-02-02T11:30:29;19.90;42.70
46932;DHT22;32670;51.464;11.964;2023-02-02T11:32:56;19.90;42.60
46932;DHT22;32670;51.464;11.964;2023-02-02T11:35:23;19.90;42.70
46932;DHT22;32670;51.464;11.964;2023-02-02T11:37:58;19.90;42.60
46932;DHT22;32670;51.464;11.964;2023-02-02T11:40:32;19.90;42.70
46932;DHT22;32670;51.464;11.964;2023-02-02T11:43:00;19.90;42.70
46932;DHT22;32670;51.464;11.964;2023-02-02T11:45:34;20.00;42.80
46932;DHT22;32670;51.464;11.964;2023-02-02T11:48:24;19.90;42.70
46932;DHT22;32670;51.464;11.964;2023-02-02T11:50:56;19.90;43.20
46932;DHT22;32670;51.464;11.964;2023-02-02T11:53:28;19.90;42.70
46932;DHT22;32670;51.464;11.964;2023-02-02T11:55:54;20.00;42.80
46932;DHT22;32670;51.464;11.964;2023-02-02T12:00:52;20.00;42.80
46932;DHT22;32670;51.464;11.964;2023-02-02T12:03:33;20.00;42.80
46932;DHT22;32670;51.464;11.964;2023-02-02T12:05:59;20.00;42.80
46932;DHT22;32670;51.464;11.964;2023-02-02T12:08:27;19.90;42.70
46932;DHT22;32670;51.464;11.964;2023-02-02T12:11:00;20.00;42.80
46932;DHT22;32670;51.464;11.964;2023-02-02T12:13:43;20.00;42.80
46932;DHT22;32670;51.464;11.964;2023-02-02T12:16:29;20.00;42.90
46932;DHT22;32670;51.464;11.964;2023-02-02T12:19:13;20.00;42.80
46932;DHT22;32670;51.464;11.964;2023-02-02T12:22:06;20.00;42.80
46932;DHT22;32670;51.464;11.964;2023-02-02T12:24:49;20.00;42.80
46932;DHT22;32670;51.464;11.964;2023-02-02T12:27:49;20.00;42.80
46932;DHT22;32670;51.464;11.964;2023-02-02T12:30:41;20.00;42.80
46932;DHT22;32670;51.464;11.964;2023-02-02T12:33:27;20.00;42.70
46932;DHT22;32670;51.464;11.964;2023-02-02T12:48:22;20.00;42.80
46932;DHT22;32670;51.464;11.964;2023-02-02T12:56:21;20.00;42.90
46932;DHT22;32670;51.464;11.964;2023-02-02T12:59:09;20.00;42.80
46932;DHT22;32670;51.464;11.964;2023-02-02T13:01:48;20.00;42.80
46932;DHT22;32670;51.464;11.964;2023-02-02T13:04:37;20.00;42.80
46932;DHT22;32670;51.464;11.964;2023-02-02T13:07:25;20.00;42.80
46932;DHT22;32670;51.464;11.964;2023-02-02T13:15:19;20.00;43.00
46932;DHT22;32670;51.464;11.964;2023-02-02T13:17:55;20.00;43.20
46932;DHT22;32670;51.464;11.964;2023-02-02T13:23:10;20.10;43.00
46932;DHT22;32670;51.464;11.964;2023-02-02T13:25:47;20.10;43.60
46932;DHT22;32670;51.464;11.964;2023-02-02T13:28:24;20.00;43.00
46932;DHT22;32670;51.464;11.964;2023-02-02T13:30:55;20.10;43.30
46932;DHT22;32670;51.464;11.964;2023-02-02T13:33:31;20.10;43.20
46932;DHT22;32670;51.464;11.964;2023-02-02T13:36:01;20.10;43.50
46932;DHT22;32670;51.464;11.964;2023-02-02T13:38:28;20.10;43.20
46932;DHT22;32670;51.464;11.964;2023-02-02T13:41:01;20.10;43.20
46932;DHT22;32670;51.464;11.964;2023-02-02T13:43:37;20.10;43.20
46932;DHT22;32670;51.464;11.964;2023-02-02T13:46:35;20.10;43.20
46932;DHT22;32670;51.464;11.964;2023-02-02T13:49:25;20.10;43.20
46932;DHT22;32670;51.464;11.964;2023-02-02T13:52:13;20.10;43.10
46932;DHT22;32670;51.464;11.964;2023-02-02T14:00:11;20.10;43.10
46932;DHT22;32670;51.464;11.964;2023-02-02T14:02:45;20.10;43.10
46932;DHT22;32670;51.464;11.964;2023-02-02T14:05:30;20.10;43.10
46932;DHT22;32670;51.464;11.964;2023-02-02T14:08:02;20.10;43.10
46932;DHT22;32670;51.464;11.964;2023-02-02T14:10:37;20.10;43.10
46932;DHT22;32670;51.464;11.964;2023-02-02T14:13:15;20.10;43.20
46932;DHT22;32670;51.464;11.964;2023-02-02T14:16:02;20.10;43.10
46932;DHT22;32670;51.464;11.964;2023-02-02T14:24:02;20.10;43.50
46932;DHT22;32670;51.464;11.964;2023-02-02T14:32:01;20.10;43.40
46932;DHT22;32670;51.464;11.964;2023-02-02T14:34:38;20.10;43.40
46932;DHT22;32670;51.464;11.964;2023-02-02T14:39:58;20.10;43.30
46932;DHT22;32670;51.464;11.964;2023-02-02T14:48:30;20.10;43.40
46932;DHT22;32670;51.464;11.964;2023-02-02T14:50:58;20.10;43.30
46932;DHT22;32670;51.464;11.964;2023-02-02T14:53:34;20.20;43.40
46932;DHT22;32670;51.464;11.964;2023-02-02T14:56:09;20.20;43.40
46932;DHT22;32670;51.464;11.964;2023-02-02T14:58:52;20.20;43.40
46932;DHT22;32670;51.464;11.964;2023-02-02T15:03:52;20.20;43.50
46932;DHT22;32670;51.464;11.964;2023-02-02T15:17:33;20.20;43.50
46932;DHT22;32670;51.464;11.964;2023-02-02T15:22:59;20.20;43.50
46932;DHT22;32670;51.464;11.964;2023-02-02T15:25:55;20.20;43.50
46932;DHT22;32670;51.464;11.964;2023-02-02T15:31:15;20.20;44.20
46932;DHT22;32670;51.464;11.964;2023-02-02T15:33:44;20.20;44.00
46932;DHT22;32670;51.464;11.964;2023-02-02T15:36:26;20.20;43.80
46932;DHT22;32670;51.464;11.964;2023-02-02T15:38:55;20.20;43.70
46932;DHT22;32670;51.464;11.964;2023-02-02T15:41:30;20.20;43.70
46932;DHT22;32670;51.464;11.964;2023-02-02T15:44:00;20.20;43.80
46932;DHT22;32670;51.464;11.964;2023-02-02T15:46:31;20.20;43.70
46932;DHT22;32670;51.464;11.964;2023-02-02T15:51:53;20.20;43.60
46932;DHT22;32670;51.464;11.964;2023-02-02T15:54:23;20.20;43.70
46932;DHT22;32670;51.464;11.964;2023-02-02T15:56:49;20.20;43.60
46932;DHT22;32670;51.464;11.964;2023-02-02T15:59:20;20.20;43.70
46932;DHT22;32670;51.464;11.964;2023-02-02T16:01:52;20.20;43.70
46932;DHT22;32670;51.464;11.964;2023-02-02T16:04:25;20.20;43.60
46932;DHT22;32670;51.464;11.964;2023-02-02T16:06:53;20.20;43.60
46932;DHT22;32670;51.464;11.964;2023-02-02T16:09:25;20.20;43.60
46932;DHT22;32670;51.464;11.964;2023-02-02T16:11:51;20.20;43.60
46932;DHT22;32670;51.464;11.964;2023-02-02T16:14:17;20.20;43.70
46932;DHT22;32670;51.464;11.964;2023-02-02T16:16:43;20.20;43.70
46932;DHT22;32670;51.464;11.964;2023-02-02T16:19:20;20.20;43.70
46932;DHT22;32670;51.464;11.964;2023-02-02T16:22:00;20.20;43.70
46932;DHT22;32670;51.464;11.964;2023-02-02T16:24:30;20.20;43.70
46932;DHT22;32670;51.464;11.964;2023-02-02T16:26:59;20.20;43.70
46932;DHT22;32670;51.464;11.964;2023-02-02T16:29:25;20.20;43.70
46932;DHT22;32670;51.464;11.964;2023-02-02T16:31:53;20.20;43.70
46932;DHT22;32670;51.464;11.964;2023-02-02T16:37:14;20.20;43.60
46932;DHT22;32670;51.464;11.964;2023-02-02T16:39:40;20.20;43.70
46932;DHT22;32670;51.464;11.964;2023-02-02T16:42:28;20.20;43.70
46932;DHT22;32670;51.464;11.964;2023-02-02T16:44:56;20.20;43.70
46932;DHT22;32670;51.464;11.964;2023-02-02T16:50:24;20.20;43.70
46932;DHT22;32670;51.464;11.964;2023-02-02T16:52:57;20.20;43.70
46932;DHT22;32670;51.464;11.964;2023-02-02T16:55:26;20.20;43.70
46932;DHT22;32670;51.464;11.964;2023-02-02T16:57:54;20.20;43.70
46932;DHT22;32670;51.464;11.964;2023-02-02T17:00:26;20.20;43.80
46932;DHT22;32670;51.464;11.964;2023-02-02T17:02:55;20.20;43.80
46932;DHT22;32670;51.464;11.964;2023-02-02T17:05:28;20.20;43.70
46932;DHT22;32670;51.464;11.964;2023-02-02T17:07:59;20.20;43.70
46932;DHT22;32670;51.464;11.964;2023-02-02T17:10:34;20.20;43.80
46932;DHT22;32670;51.464;11.964;2023-02-02T17:13:02;20.20;43.70
46932;DHT22;32670;51.464;11.964;2023-02-02T17:15:50;20.20;43.70
46932;DHT22;32670;51.464;11.964;2023-02-02T17:18:16;20.30;43.80
46932;DHT22;32670;51.464;11.964;2023-02-02T17:20:42;20.20;43.80
46932;DHT22;32670;51.464;11.964;2023-02-02T17:23:12;20.20;43.70
46932;DHT22;32670;51.464;11.964;2023-02-02T17:25:43;20.20;43.80
46932;DHT22;32670;51.464;11.964;2023-02-02T17:28:15;20.20;44.50
46932;DHT22;32670;51.464;11.964;2023-02-02T17:30:41;20.20;44.30
46932;DHT22;32670;51.464;11.964;2023-02-02T17:33:15;20.20;44.20
46932;DHT22;32670;51.464;11.964;2023-02-02T17:35:42;20.20;44.10